sensor_id;sensor_type;location;lat;lon;timestamp;pressure;altitude;pressure_sealevel;temperature;humidity
4469;BME280;2247;42.666;23.292;2022-12-07T00:01:31;94365.91;;;11.92;59.03
4469;BME280;2247;42.666;23.292;2022-12-07T00:04:00;94364.53;;;11.99;58.87
4469;BME280;2247;42.666;23.292;2022-12-07T00:06:30;94357.53;;;11.84;59.43
4469;BME280;2247;42.666;23.292;2022-12-07T00:08:58;94350.38;;;12.14;58.84
4469;BME280;2247;42.666;23.292;2022-12-07T00:11:26;94332.09;;;11.94;58.36
4469;BME280;2247;42.666;23.292;2022-12-07T00:13:57;94346.63;;;11.62;60.03
4469;BME280;2247;42.666;23.292;2022-12-07T00:16:28;94345.53;;;11.68;59.54
4469;BME280;2247;42.666;23.292;2022-12-07T00:18:57;94333.25;;;11.54;59.64
4469;BME280;2247;42.666;23.292;2022-12-07T00:21:27;94346.00;;;11.41;60.32
4469;BME280;2247;42.666;23.292;2022-12-07T00:23:55;94350.91;;;11.24;61.26
4469;BME280;2247;42.666;23.292;2022-12-07T00:26:24;94344.28;;;11.27;61.75
4469;BME280;2247;42.666;23.292;2022-12-07T00:28:53;94346.47;;;11.49;60.46
4469;BME280;2247;42.666;23.292;2022-12-07T00:31:23;94342.31;;;11.42;60.76
4469;BME280;2247;42.666;23.292;2022-12-07T00:33:52;94353.78;;;11.57;60.49
4469;BME280;2247;42.666;23.292;2022-12-07T00:36:22;94333.75;;;11.56;60.62
4469;BME280;2247;42.666;23.292;2022-12-07T00:38:49;94347.22;;;11.20;60.98
4469;BME280;2247;42.666;23.292;2022-12-07T00:41:18;94349.09;;;11.20;61.50
4469;BME280;2247;42.666;23.292;2022-12-07T00:43:46;94357.78;;;11.54;60.63
4469;BME280;2247;42.666;23.292;2022-12-07T00:46:14;94349.91;;;11.49;60.68
4469;BME280;2247;42.666;23.292;2022-12-07T00:48:43;94340.72;;;11.41;61.22
4469;BME280;2247;42.666;23.292;2022-12-07T00:51:13;94346.44;;;11.54;60.50
4469;BME280;2247;42.666;23.292;2022-12-07T00:53:42;94344.50;;;11.64;59.91
4469;BME280;2247;42.666;23.292;2022-12-07T00:56:13;94344.91;;;11.81;59.70
4469;BME280;2247;42.666;23.292;2022-12-07T00:58:41;94343.06;;;11.77;60.05
4469;BME280;2247;42.666;23.292;2022-12-07T01:01:10;94342.09;;;11.68;60.18
4469;BME280;2247;42.666;23.292;2022-12-07T01:03:38;94349.16;;;11.77;60.30
4469;BME280;2247;42.666;23.292;2022-12-07T01:06:05;94345.75;;;11.72;59.79
4469;BME280;2247;42.666;23.292;2022-12-07T01:08:35;94343.50;;;11.89;59.53
4469;BME280;2247;42.666;23.292;2022-12-07T01:11:05;94334.97;;;11.97;59.19
4469;BME280;2247;42.666;23.292;2022-12-07T01:13:34;94326.91;;;11.83;59.04
4469;BME280;2247;42.666;23.292;2022-12-07T01:16:04;94330.09;;;12.09;59.19
4469;BME280;2247;42.666;23.292;2022-12-07T01:18:33;94333.94;;;12.17;58.73
4469;BME280;2247;42.666;23.292;2022-12-07T01:21:01;94318.44;;;12.10;58.98
4469;BME280;2247;42.666;23.292;2022-12-07T01:23:29;94320.19;;;11.96;59.31
4469;BME280;2247;42.666;23.292;2022-12-07T01:25:59;94316.81;;;12.14;59.29
4469;BME280;2247;42.666;23.292;2022-12-07T01:28:28;94317.50;;;12.01;59.08
4469;BME280;2247;42.666;23.292;2022-12-07T01:31:00;94321.75;;;11.97;59.59
4469;BME280;2247;42.666;23.292;2022-12-07T01:33:31;94318.16;;;11.88;59.79
4469;BME280;2247;42.666;23.292;2022-12-07T01:36:01;94314.34;;;11.99;60.09
4469;BME280;2247;42.666;23.292;2022-12-07T01:38:29;94312.09;;;12.11;59.25
4469;BME280;2247;42.666;23.292;2022-12-07T01:40:59;94320.19;;;11.96;59.40
4469;BME280;2247;42.666;23.292;2022-12-07T01:43:28;94315.41;;;11.98;59.52
4469;BME280;2247;42.666;23.292;2022-12-07T01:45:56;94321.63;;;11.83;60.13
4469;BME280;2247;42.666;23.292;2022-12-07T01:48:27;94308.78;;;11.72;60.56
4469;BME280;2247;42.666;23.292;2022-12-07T01:50:57;94332.41;;;11.58;60.91
4469;BME280;2247;42.666;23.292;2022-12-07T01:53:29;94316.78;;;11.62;60.86
4469;BME280;2247;42.666;23.292;2022-12-07T01:55:59;94316.59;;;11.87;60.69
4469;BME280;2247;42.666;23.292;2022-12-07T01:58:26;94312.72;;;11.79;60.28
4469;BME280;2247;42.666;23.292;2022-12-07T02:00:53;94297.72;;;11.75;60.47
4469;BME280;2247;42.666;23.292;2022-12-07T02:03:25;94290.06;;;11.97;59.88
4469;BME280;2247;42.666;23.292;2022-12-07T02:05:55;94293.31;;;12.13;59.30
4469;BME280;2247;42.666;23.292;2022-12-07T02:08:24;94299.13;;;11.91;60.04
4469;BME280;2247;42.666;23.292;2022-12-07T02:10:52;94299.50;;;12.03;59.44
4469;BME280;2247;42.666;23.292;2022-12-07T02:13:23;94310.28;;;11.83;60.15
4469;BME280;2247;42.666;23.292;2022-12-07T02:16:09;94316.06;;;11.85;59.84
4469;BME280;2247;42.666;23.292;2022-12-07T02:18:51;94308.72;;;12.06;59.39
4469;BME280;2247;42.666;23.292;2022-12-07T02:21:29;94301.03;;;11.86;59.83
4469;BME280;2247;42.666;23.292;2022-12-07T02:24:14;94303.22;;;11.78;60.60
4469;BME280;2247;42.666;23.292;2022-12-07T02:27:06;94296.81;;;11.56;60.70
4469;BME280;2247;42.666;23.292;2022-12-07T02:29:44;94306.69;;;11.69;60.57
4469;BME280;2247;42.666;23.292;2022-12-07T02:32:19;94285.75;;;11.54;60.99
4469;BME280;2247;42.666;23.292;2022-12-07T02:34:52;94285.47;;;11.26;61.81
4469;BME280;2247;42.666;23.292;2022-12-07T02:37:42;94294.19;;;11.22;62.34
4469;BME280;2247;42.666;23.292;2022-12-07T02:40:18;94291.56;;;11.51;62.09
4469;BME280;2247;42.666;23.292;2022-12-07T02:42:50;94292.44;;;11.70;61.41
4469;BME280;2247;42.666;23.292;2022-12-07T02:45:24;94295.94;;;11.94;60.50
4469;BME280;2247;42.666;23.292;2022-12-07T02:47:55;94293.13;;;12.09;59.43
4469;BME280;2247;42.666;23.292;2022-12-07T02:50:25;94288.63;;;12.10;59.24
4469;BME280;2247;42.666;23.292;2022-12-07T02:52:52;94280.63;;;12.15;59.32
4469;BME280;2247;42.666;23.292;2022-12-07T02:55:23;94274.03;;;12.12;58.49
4469;BME280;2247;42.666;23.292;2022-12-07T02:58:09;94282.81;;;12.08;58.95
4469;BME280;2247;42.666;23.292;2022-12-07T03:00:45;94268.56;;;11.85;59.50
4469;BME280;2247;42.666;23.292;2022-12-07T03:03:16;94271.63;;;11.68;60.67
4469;BME280;2247;42.666;23.292;2022-12-07T03:05:53;94277.78;;;11.59;60.41
4469;BME280;2247;42.666;23.292;2022-12-07T03:08:30;94275.41;;;11.33;61.20
4469;BME280;2247;42.666;23.292;2022-12-07T03:11:03;94261.47;;;10.94;62.37
4469;BME280;2247;42.666;23.292;2022-12-07T03:13:36;94261.66;;;10.69;63.39
4469;BME280;2247;42.666;23.292;2022-12-07T03:16:11;94265.34;;;10.68;63.80
4469;BME280;2247;42.666;23.292;2022-12-07T03:18:46;94267.53;;;10.94;62.95
4469;BME280;2247;42.666;23.292;2022-12-07T03:21:22;94267.59;;;11.18;62.54
4469;BME280;2247;42.666;23.292;2022-12-07T03:23:53;94268.75;;;11.36;61.88
4469;BME280;2247;42.666;23.292;2022-12-07T03:26:25;94268.81;;;11.60;61.19
4469;BME280;2247;42.666;23.292;2022-12-07T03:28:58;94268.63;;;11.80;60.70
4469;BME280;2247;42.666;23.292;2022-12-07T03:31:31;94272.50;;;11.88;60.02
4469;BME280;2247;42.666;23.292;2022-12-07T03:34:05;94281.75;;;11.85;59.60
4469;BME280;2247;42.666;23.292;2022-12-07T03:36:39;94273.50;;;11.92;59.73
4469;BME280;2247;42.666;23.292;2022-12-07T03:39:14;94266.16;;;11.89;59.79
4469;BME280;2247;42.666;23.292;2022-12-07T03:41:45;94265.91;;;11.85;59.16
4469;BME280;2247;42.666;23.292;2022-12-07T03:44:13;94272.44;;;11.93;59.49
4469;BME280;2247;42.666;23.292;2022-12-07T03:46:50;94258.69;;;11.96;58.87
4469;BME280;2247;42.666;23.292;2022-12-07T03:49:26;94265.13;;;11.84;59.21
4469;BME280;2247;42.666;23.292;2022-12-07T03:52:00;94276.25;;;11.81;59.73
4469;BME280;2247;42.666;23.292;2022-12-07T03:54:34;94272.22;;;11.89;59.66
4469;BME280;2247;42.666;23.292;2022-12-07T03:57:04;94259.56;;;11.86;59.11
4469;BME280;2247;42.666;23.292;2022-12-07T03:59:34;94263.88;;;11.77;59.43
4469;BME280;2247;42.666;23.292;2022-12-07T04:02:05;94257.63;;;11.68;59.93
4469;BME280;2247;42.666;23.292;2022-12-07T04:04:33;94265.09;;;11.61;60.28
4469;BME280;2247;42.666;23.292;2022-12-07T04:07:01;94257.78;;;11.53;60.29
4469;BME280;2247;42.666;23.292;2022-12-07T04:09:29;94258.69;;;11.67;60.65
4469;BME280;2247;42.666;23.292;2022-12-07T04:11:56;94258.84;;;11.52;60.88
4469;BME280;2247;42.666;23.292;2022-12-07T04:14:23;94250.34;;;11.31;61.21
4469;BME280;2247;42.666;23.292;2022-12-07T04:16:51;94247.06;;;11.15;62.00
4469;BME280;2247;42.666;23.292;2022-12-07T04:19:25;94254.78;;;11.35;61.38
4469;BME280;2247;42.666;23.292;2022-12-07T04:21:54;94260.84;;;11.36;61.65
4469;BME280;2247;42.666;23.292;2022-12-07T04:24:21;94258.63;;;11.19;61.66
4469;BME280;2247;42.666;23.292;2022-12-07T04:26:49;94245.44;;;11.19;61.54
4469;BME280;2247;42.666;23.292;2022-12-07T04:29:16;94262.09;;;11.43;61.27
4469;BME280;2247;42.666;23.292;2022-12-07T04:31:44;94266.38;;;11.34;61.58
4469;BME280;2247;42.666;23.292;2022-12-07T04:34:11;94261.56;;;11.41;60.90
4469;BME280;2247;42.666;23.292;2022-12-07T04:36:40;94266.56;;;11.14;62.42
4469;BME280;2247;42.666;23.292;2022-12-07T04:39:18;94260.09;;;11.01;62.55
4469;BME280;2247;42.666;23.292;2022-12-07T04:41:47;94268.94;;;11.16;62.36
4469;BME280;2247;42.666;23.292;2022-12-07T04:44:14;94259.28;;;11.06;62.25
4469;BME280;2247;42.666;23.292;2022-12-07T04:46:42;94271.66;;;11.34;61.91
4469;BME280;2247;42.666;23.292;2022-12-07T04:49:10;94264.84;;;11.33;61.31
4469;BME280;2247;42.666;23.292;2022-12-07T04:51:37;94268.53;;;11.32;61.88
4469;BME280;2247;42.666;23.292;2022-12-07T04:54:08;94275.81;;;11.45;61.28
4469;BME280;2247;42.666;23.292;2022-12-07T04:56:36;94269.50;;;11.41;61.10
4469;BME280;2247;42.666;23.292;2022-12-07T04:59:04;94269.53;;;11.36;61.29
4469;BME280;2247;42.666;23.292;2022-12-07T05:06:41;94271.34;;;11.12;62.14
4469;BME280;2247;42.666;23.292;2022-12-07T05:09:10;94270.84;;;11.10;62.36
4469;BME280;2247;42.666;23.292;2022-12-07T05:11:38;94258.34;;;10.87;62.81
4469;BME280;2247;42.666;23.292;2022-12-07T05:45:08;94253.06;;;11.78;60.21
4469;BME280;2247;42.666;23.292;2022-12-07T05:47:36;94253.06;;;12.02;59.42
4469;BME280;2247;42.666;23.292;2022-12-07T05:50:06;94251.41;;;11.59;59.99
4469;BME280;2247;42.666;23.292;2022-12-07T05:52:37;94251.47;;;11.25;61.28
4469;BME280;2247;42.666;23.292;2022-12-07T05:55:06;94256.72;;;11.25;61.23
4469;BME280;2247;42.666;23.292;2022-12-07T05:57:33;94266.41;;;11.05;62.13
4469;BME280;2247;42.666;23.292;2022-12-07T06:00:01;94254.69;;;11.17;61.96
4469;BME280;2247;42.666;23.292;2022-12-07T06:02:28;94256.47;;;11.26;61.35
4469;BME280;2247;42.666;23.292;2022-12-07T06:04:55;94252.56;;;11.48;61.14
4469;BME280;2247;42.666;23.292;2022-12-07T06:07:22;94261.69;;;11.55;60.31
4469;BME280;2247;42.666;23.292;2022-12-07T06:09:49;94259.19;;;11.74;59.94
4469;BME280;2247;42.666;23.292;2022-12-07T06:12:17;94256.38;;;11.89;59.24
4469;BME280;2247;42.666;23.292;2022-12-07T06:15:00;94260.03;;;11.93;58.96
4469;BME280;2247;42.666;23.292;2022-12-07T06:27:49;94267.63;;;12.18;58.01
4469;BME280;2247;42.666;23.292;2022-12-07T06:30:17;94271.84;;;12.19;58.33
4469;BME280;2247;42.666;23.292;2022-12-07T06:32:50;94258.50;;;11.87;58.87
4469;BME280;2247;42.666;23.292;2022-12-07T06:37:52;94258.50;;;11.87;59.61
4469;BME280;2247;42.666;23.292;2022-12-07T06:40:19;94264.78;;;11.67;59.32
4469;BME280;2247;42.666;23.292;2022-12-07T06:45:38;94277.19;;;11.91;60.17
4469;BME280;2247;42.666;23.292;2022-12-07T06:48:06;94281.69;;;12.14;59.49
4469;BME280;2247;42.666;23.292;2022-12-07T06:50:35;94278.44;;;12.41;58.89
4469;BME280;2247;42.666;23.292;2022-12-07T06:53:03;94278.69;;;12.63;58.44
4469;BME280;2247;42.666;23.292;2022-12-07T06:55:30;94275.03;;;12.59;57.15
4469;BME280;2247;42.666;23.292;2022-12-07T06:57:58;94283.25;;;12.57;57.08
4469;BME280;2247;42.666;23.292;2022-12-07T07:00:28;94283.19;;;12.62;57.46
4469;BME280;2247;42.666;23.292;2022-12-07T07:02:57;94285.53;;;12.64;57.31
4469;BME280;2247;42.666;23.292;2022-12-07T07:05:24;94286.25;;;12.70;57.19
4469;BME280;2247;42.666;23.292;2022-12-07T07:07:51;94280.81;;;12.80;56.88
4469;BME280;2247;42.666;23.292;2022-12-07T07:10:19;94267.00;;;12.45;57.31
4469;BME280;2247;42.666;23.292;2022-12-07T07:12:48;94280.78;;;12.23;57.86
4469;BME280;2247;42.666;23.292;2022-12-07T07:15:18;94276.66;;;12.36;58.37
4469;BME280;2247;42.666;23.292;2022-12-07T07:17:46;94258.09;;;12.41;57.86
4469;BME280;2247;42.666;23.292;2022-12-07T07:20:16;94273.53;;;12.72;56.81
4469;BME280;2247;42.666;23.292;2022-12-07T07:22:44;94284.81;;;12.77;56.30
4469;BME280;2247;42.666;23.292;2022-12-07T07:25:13;94261.75;;;12.64;56.50
4469;BME280;2247;42.666;23.292;2022-12-07T07:27:41;94265.56;;;12.15;58.02
4469;BME280;2247;42.666;23.292;2022-12-07T07:30:13;94282.78;;;12.32;57.80
4469;BME280;2247;42.666;23.292;2022-12-07T07:32:56;94290.06;;;12.21;58.58
4469;BME280;2247;42.666;23.292;2022-12-07T07:35:24;94296.25;;;12.11;59.00
4469;BME280;2247;42.666;23.292;2022-12-07T07:37:51;94295.34;;;11.97;59.53
4469;BME280;2247;42.666;23.292;2022-12-07T07:40:18;94289.09;;;12.12;59.00
4469;BME280;2247;42.666;23.292;2022-12-07T07:42:47;94285.91;;;12.15;58.77
4469;BME280;2247;42.666;23.292;2022-12-07T07:45:15;94292.28;;;12.33;58.66
4469;BME280;2247;42.666;23.292;2022-12-07T07:47:42;94290.53;;;12.47;57.44
4469;BME280;2247;42.666;23.292;2022-12-07T07:50:11;94274.84;;;12.32;58.44
4469;BME280;2247;42.666;23.292;2022-12-07T07:52:40;94293.16;;;12.47;58.31
4469;BME280;2247;42.666;23.292;2022-12-07T07:55:07;94281.88;;;12.41;58.41
4469;BME280;2247;42.666;23.292;2022-12-07T07:57:35;94285.59;;;12.59;58.29
4469;BME280;2247;42.666;23.292;2022-12-07T08:00:04;94287.88;;;12.66;58.08
4469;BME280;2247;42.666;23.292;2022-12-07T08:02:32;94286.47;;;12.73;57.43
4469;BME280;2247;42.666;23.292;2022-12-07T08:04:59;94286.69;;;12.77;57.36
4469;BME280;2247;42.666;23.292;2022-12-07T08:07:27;94280.47;;;12.68;57.42
4469;BME280;2247;42.666;23.292;2022-12-07T08:09:56;94287.59;;;12.67;57.19
4469;BME280;2247;42.666;23.292;2022-12-07T08:12:23;94294.88;;;12.94;57.20
4469;BME280;2247;42.666;23.292;2022-12-07T08:14:50;94269.34;;;13.03;57.27
4469;BME280;2247;42.666;23.292;2022-12-07T08:17:17;94278.44;;;13.16;56.99
4469;BME280;2247;42.666;23.292;2022-12-07T08:19:44;94279.41;;;13.38;56.62
4469;BME280;2247;42.666;23.292;2022-12-07T08:22:11;94290.22;;;13.69;56.30
4469;BME280;2247;42.666;23.292;2022-12-07T08:24:39;94256.19;;;13.63;55.21
4469;BME280;2247;42.666;23.292;2022-12-07T08:27:08;94276.56;;;13.49;54.84
4469;BME280;2247;42.666;23.292;2022-12-07T08:29:35;94279.28;;;13.30;55.26
4469;BME280;2247;42.666;23.292;2022-12-07T08:32:03;94283.03;;;13.43;55.11
4469;BME280;2247;42.666;23.292;2022-12-07T08:36:58;94267.56;;;13.63;54.92
4469;BME280;2247;42.666;23.292;2022-12-07T08:39:26;94286.09;;;13.50;54.31
4469;BME280;2247;42.666;23.292;2022-12-07T08:41:53;94275.00;;;12.96;55.49
4469;BME280;2247;42.666;23.292;2022-12-07T08:47:02;94276.97;;;12.72;56.98
4469;BME280;2247;42.666;23.292;2022-12-07T08:49:33;94273.38;;;12.82;57.15
4469;BME280;2247;42.666;23.292;2022-12-07T08:52:05;94271.22;;;12.46;57.32
4469;BME280;2247;42.666;23.292;2022-12-07T08:54:33;94270.09;;;12.34;58.39
4469;BME280;2247;42.666;23.292;2022-12-07T08:57:02;94266.44;;;12.30;58.46
4469;BME280;2247;42.666;23.292;2022-12-07T08:59:31;94271.72;;;12.30;58.38
4469;BME280;2247;42.666;23.292;2022-12-07T09:02:01;94262.38;;;12.37;58.54
4469;BME280;2247;42.666;23.292;2022-12-07T09:04:28;94257.47;;;11.83;59.63
4469;BME280;2247;42.666;23.292;2022-12-07T09:06:56;94260.13;;;12.07;59.68
4469;BME280;2247;42.666;23.292;2022-12-07T09:09:23;94261.41;;;12.09;58.81
4469;BME280;2247;42.666;23.292;2022-12-07T09:11:52;94249.88;;;11.81;60.01
4469;BME280;2247;42.666;23.292;2022-12-07T09:14:19;94252.06;;;11.45;61.07
4469;BME280;2247;42.666;23.292;2022-12-07T09:16:46;94251.84;;;11.13;61.67
4469;BME280;2247;42.666;23.292;2022-12-07T09:19:16;94250.84;;;11.04;62.76
4469;BME280;2247;42.666;23.292;2022-12-07T09:21:43;94246.66;;;11.32;62.24
4469;BME280;2247;42.666;23.292;2022-12-07T09:24:12;94250.28;;;11.65;61.06
4469;BME280;2247;42.666;23.292;2022-12-07T09:26:39;94255.28;;;11.90;60.30
4469;BME280;2247;42.666;23.292;2022-12-07T09:29:06;94243.22;;;12.08;59.56
4469;BME280;2247;42.666;23.292;2022-12-07T09:31:36;94237.59;;;12.33;59.13
4469;BME280;2247;42.666;23.292;2022-12-07T09:34:03;94230.31;;;12.44;59.21
4469;BME280;2247;42.666;23.292;2022-12-07T09:36:35;94231.44;;;12.38;58.69
4469;BME280;2247;42.666;23.292;2022-12-07T09:39:03;94227.06;;;12.66;58.20
4469;BME280;2247;42.666;23.292;2022-12-07T09:41:31;94224.16;;;12.86;57.52
4469;BME280;2247;42.666;23.292;2022-12-07T09:44:03;94224.00;;;12.77;57.29
4469;BME280;2247;42.666;23.292;2022-12-07T09:46:35;94213.72;;;12.19;58.45
4469;BME280;2247;42.666;23.292;2022-12-07T09:49:04;94222.00;;;12.13;59.59
4469;BME280;2247;42.666;23.292;2022-12-07T09:51:31;94220.75;;;12.29;58.71
4469;BME280;2247;42.666;23.292;2022-12-07T09:54:01;94211.97;;;12.15;59.23
4469;BME280;2247;42.666;23.292;2022-12-07T09:56:29;94207.03;;;12.46;58.93
4469;BME280;2247;42.666;23.292;2022-12-07T09:58:59;94205.09;;;12.70;58.40
4469;BME280;2247;42.666;23.292;2022-12-07T10:01:29;94215.06;;;12.92;57.62
4469;BME280;2247;42.666;23.292;2022-12-07T10:04:01;94218.66;;;13.15;56.87
4469;BME280;2247;42.666;23.292;2022-12-07T10:06:33;94213.41;;;13.28;56.04
4469;BME280;2247;42.666;23.292;2022-12-07T10:09:07;94205.38;;;13.20;56.66
4469;BME280;2247;42.666;23.292;2022-12-07T10:11:35;94203.09;;;13.13;56.60
4469;BME280;2247;42.666;23.292;2022-12-07T10:14:11;94195.56;;;13.20;56.21
4469;BME280;2247;42.666;23.292;2022-12-07T10:16:40;94195.28;;;13.03;56.41
4469;BME280;2247;42.666;23.292;2022-12-07T10:19:23;94189.81;;;12.99;56.58
4469;BME280;2247;42.666;23.292;2022-12-07T10:22:02;94190.41;;;13.10;56.68
4469;BME280;2247;42.666;23.292;2022-12-07T10:24:32;94168.06;;;13.02;56.61
4469;BME280;2247;42.666;23.292;2022-12-07T10:26:59;94180.13;;;13.09;56.97
4469;BME280;2247;42.666;23.292;2022-12-07T10:29:29;94173.69;;;12.82;57.29
4469;BME280;2247;42.666;23.292;2022-12-07T10:31:59;94171.09;;;12.63;58.22
4469;BME280;2247;42.666;23.292;2022-12-07T10:34:28;94162.75;;;12.38;59.08
4469;BME280;2247;42.666;23.292;2022-12-07T10:37:12;94161.06;;;12.28;59.04
4469;BME280;2247;42.666;23.292;2022-12-07T10:39:44;94157.56;;;12.14;60.11
4469;BME280;2247;42.666;23.292;2022-12-07T10:42:19;94144.19;;;12.43;59.44
4469;BME280;2247;42.666;23.292;2022-12-07T10:47:27;94161.09;;;12.42;58.86
4469;BME280;2247;42.666;23.292;2022-12-07T10:52:59;94149.19;;;12.44;58.83
4469;BME280;2247;42.666;23.292;2022-12-07T10:55:41;94145.22;;;12.60;58.58
4469;BME280;2247;42.666;23.292;2022-12-07T10:58:25;94125.75;;;12.56;58.64
4469;BME280;2247;42.666;23.292;2022-12-07T11:01:02;94116.13;;;12.60;58.20
4469;BME280;2247;42.666;23.292;2022-12-07T11:03:45;94130.06;;;12.98;57.93
4469;BME280;2247;42.666;23.292;2022-12-07T11:06:25;94127.53;;;12.75;57.81
4469;BME280;2247;42.666;23.292;2022-12-07T11:09:03;94114.38;;;13.02;57.63
4469;BME280;2247;42.666;23.292;2022-12-07T11:11:40;94108.78;;;13.03;57.30
4469;BME280;2247;42.666;23.292;2022-12-07T11:14:18;94119.31;;;13.22;56.96
4469;BME280;2247;42.666;23.292;2022-12-07T11:16:56;94116.19;;;13.48;56.32
4469;BME280;2247;42.666;23.292;2022-12-07T11:19:46;94110.59;;;13.35;56.16
4469;BME280;2247;42.666;23.292;2022-12-07T11:22:23;94118.75;;;13.53;55.78
4469;BME280;2247;42.666;23.292;2022-12-07T11:25:00;94102.66;;;13.35;55.92
4469;BME280;2247;42.666;23.292;2022-12-07T11:27:38;94099.28;;;13.71;55.43
4469;BME280;2247;42.666;23.292;2022-12-07T11:30:13;94093.81;;;13.67;55.21
4469;BME280;2247;42.666;23.292;2022-12-07T11:33:01;94072.19;;;13.38;54.96
4469;BME280;2247;42.666;23.292;2022-12-07T11:38:07;94079.56;;;13.14;56.07
4469;BME280;2247;42.666;23.292;2022-12-07T11:40:38;94083.50;;;12.97;57.10
4469;BME280;2247;42.666;23.292;2022-12-07T11:43:15;94086.53;;;12.91;57.34
4469;BME280;2247;42.666;23.292;2022-12-07T11:45:49;94085.75;;;12.90;57.14
4469;BME280;2247;42.666;23.292;2022-12-07T11:48:24;94076.38;;;13.12;57.33
4469;BME280;2247;42.666;23.292;2022-12-07T11:50:57;94075.91;;;13.37;56.42
4469;BME280;2247;42.666;23.292;2022-12-07T11:53:35;94062.25;;;13.44;57.31
4469;BME280;2247;42.666;23.292;2022-12-07T11:56:12;94069.38;;;13.70;56.72
4469;BME280;2247;42.666;23.292;2022-12-07T11:58:48;94066.69;;;13.48;55.83
4469;BME280;2247;42.666;23.292;2022-12-07T12:01:29;94071.19;;;13.61;55.56
4469;BME280;2247;42.666;23.292;2022-12-07T12:04:05;94052.34;;;13.49;55.28
4469;BME280;2247;42.666;23.292;2022-12-07T12:06:34;94058.63;;;13.53;55.79
4469;BME280;2247;42.666;23.292;2022-12-07T12:09:05;94053.97;;;13.72;54.98
4469;BME280;2247;42.666;23.292;2022-12-07T12:11:48;94049.81;;;13.94;54.73
4469;BME280;2247;42.666;23.292;2022-12-07T12:14:40;94028.53;;;13.85;54.35
4469;BME280;2247;42.666;23.292;2022-12-07T12:17:38;94039.63;;;13.87;55.07
4469;BME280;2247;42.666;23.292;2022-12-07T12:20:21;94040.63;;;13.77;54.38
4469;BME280;2247;42.666;23.292;2022-12-07T12:22:55;94039.22;;;13.94;54.25
4469;BME280;2247;42.666;23.292;2022-12-07T12:25:26;94037.97;;;13.77;54.37
4469;BME280;2247;42.666;23.292;2022-12-07T12:27:56;94034.66;;;13.72;54.98
4469;BME280;2247;42.666;23.292;2022-12-07T12:30:31;94028.16;;;13.78;54.12
4469;BME280;2247;42.666;23.292;2022-12-07T12:33:13;94023.72;;;13.87;53.64
4469;BME280;2247;42.666;23.292;2022-12-07T12:35:42;94019.94;;;14.02;53.81
4469;BME280;2247;42.666;23.292;2022-12-07T12:38:31;94008.69;;;13.96;53.78
4469;BME280;2247;42.666;23.292;2022-12-07T12:41:00;94011.94;;;13.93;53.61
4469;BME280;2247;42.666;23.292;2022-12-07T12:43:49;94003.69;;;13.95;53.66
4469;BME280;2247;42.666;23.292;2022-12-07T12:46:53;94006.34;;;14.17;54.04
4469;BME280;2247;42.666;23.292;2022-12-07T12:49:38;94014.19;;;14.44;53.32
4469;BME280;2247;42.666;23.292;2022-12-07T12:58:44;94008.22;;;14.70;51.50
4469;BME280;2247;42.666;23.292;2022-12-07T13:01:38;94007.47;;;14.78;51.61
4469;BME280;2247;42.666;23.292;2022-12-07T13:08:02;94011.16;;;14.68;51.80
4469;BME280;2247;42.666;23.292;2022-12-07T13:10:42;94018.88;;;14.78;51.99
4469;BME280;2247;42.666;23.292;2022-12-07T13:13:39;94007.06;;;14.93;51.20
4469;BME280;2247;42.666;23.292;2022-12-07T13:22:42;94009.50;;;14.81;51.78
4469;BME280;2247;42.666;23.292;2022-12-07T13:25:17;93999.66;;;14.73;51.34
4469;BME280;2247;42.666;23.292;2022-12-07T13:27:52;94008.38;;;14.73;52.01
4469;BME280;2247;42.666;23.292;2022-12-07T13:30:22;94000.94;;;14.53;52.10
4469;BME280;2247;42.666;23.292;2022-12-07T13:32:55;94010.56;;;14.71;51.59
4469;BME280;2247;42.666;23.292;2022-12-07T13:35:37;94011.69;;;14.79;51.73
4469;BME280;2247;42.666;23.292;2022-12-07T13:38:25;93996.38;;;14.76;51.45
4469;BME280;2247;42.666;23.292;2022-12-07T13:41:04;94003.41;;;14.72;51.62
4469;BME280;2247;42.666;23.292;2022-12-07T13:43:44;93992.16;;;14.75;51.61
4469;BME280;2247;42.666;23.292;2022-12-07T13:46:18;94003.91;;;14.82;51.60
4469;BME280;2247;42.666;23.292;2022-12-07T13:49:04;94003.84;;;14.74;51.49
4469;BME280;2247;42.666;23.292;2022-12-07T13:52:07;93995.00;;;14.87;51.64
4469;BME280;2247;42.666;23.292;2022-12-07T13:54:58;93992.50;;;14.82;51.81
4469;BME280;2247;42.666;23.292;2022-12-07T13:57:32;93993.91;;;14.48;52.86
4469;BME280;2247;42.666;23.292;2022-12-07T14:00:01;93984.88;;;14.27;53.95
4469;BME280;2247;42.666;23.292;2022-12-07T14:02:31;93984.16;;;14.35;53.63
4469;BME280;2247;42.666;23.292;2022-12-07T14:05:07;93997.41;;;14.35;54.21
4469;BME280;2247;42.666;23.292;2022-12-07T14:07:35;93983.84;;;14.37;53.39
4469;BME280;2247;42.666;23.292;2022-12-07T14:10:06;93993.66;;;14.58;53.43
4469;BME280;2247;42.666;23.292;2022-12-07T14:12:36;93996.19;;;14.64;53.16
4469;BME280;2247;42.666;23.292;2022-12-07T14:17:31;93994.56;;;14.54;52.86
4469;BME280;2247;42.666;23.292;2022-12-07T14:19:59;94004.53;;;14.48;53.29
4469;BME280;2247;42.666;23.292;2022-12-07T14:22:32;94002.16;;;14.47;53.63
4469;BME280;2247;42.666;23.292;2022-12-07T14:25:16;94003.31;;;14.54;53.55
4469;BME280;2247;42.666;23.292;2022-12-07T14:27:52;94005.81;;;14.59;53.09
4469;BME280;2247;42.666;23.292;2022-12-07T14:30:23;94015.09;;;14.71;52.70
4469;BME280;2247;42.666;23.292;2022-12-07T14:32:54;94002.56;;;14.63;52.65
4469;BME280;2247;42.666;23.292;2022-12-07T14:35:21;94009.75;;;14.62;52.57
4469;BME280;2247;42.666;23.292;2022-12-07T14:37:49;94011.44;;;14.58;52.48
4469;BME280;2247;42.666;23.292;2022-12-07T14:40:20;94008.53;;;14.68;52.32
4469;BME280;2247;42.666;23.292;2022-12-07T14:42:51;94005.63;;;14.87;51.78
4469;BME280;2247;42.666;23.292;2022-12-07T14:45:21;94014.06;;;14.89;51.35
4469;BME280;2247;42.666;23.292;2022-12-07T14:47:49;94006.09;;;14.89;51.12
4469;BME280;2247;42.666;23.292;2022-12-07T14:50:18;93982.34;;;14.75;51.06
4469;BME280;2247;42.666;23.292;2022-12-07T14:52:49;93979.19;;;14.65;51.47
4469;BME280;2247;42.666;23.292;2022-12-07T14:55:23;94002.72;;;14.57;52.58
4469;BME280;2247;42.666;23.292;2022-12-07T14:57:51;94005.78;;;14.51;52.71
4469;BME280;2247;42.666;23.292;2022-12-07T15:00:28;94005.31;;;14.49;52.51